sensor_id;sensor_type;location;lat;lon;timestamp;P1;durP1;ratioP1;P2;durP2;ratioP2
38465;SDS011;24244;51.950;5.902;2022-12-18T00:01:49;18.05;;;7.90;;
38465;SDS011;24244;51.950;5.902;2022-12-18T00:04:18;16.05;;;7.78;;
38465;SDS011;24244;51.950;5.902;2022-12-18T00:06:48;18.75;;;7.68;;
38465;SDS011;24244;51.950;5.902;2022-12-18T00:09:15;13.88;;;6.82;;
38465;SDS011;24244;51.950;5.902;2022-12-18T00:11:42;16.58;;;8.13;;
38465;SDS011;24244;51.950;5.902;2022-12-18T00:14:11;15.50;;;7.70;;
38465;SDS011;24244;51.950;5.902;2022-12-18T00:16:39;17.40;;;7.95;;
38465;SDS011;24244;51.950;5.902;2022-12-18T00:19:09;15.93;;;7.82;;
38465;SDS011;24244;51.950;5.902;2022-12-18T00:21:40;14.13;;;7.43;;
38465;SDS011;24244;51.950;5.902;2022-12-18T00:24:08;17.08;;;7.40;;
38465;SDS011;24244;51.950;5.902;2022-12-18T00:26:35;19.27;;;8.57;;
38465;SDS011;24244;51.950;5.902;2022-12-18T00:29:04;17.48;;;7.95;;
38465;SDS011;24244;51.950;5.902;2022-12-18T00:31:34;17.70;;;7.88;;
38465;SDS011;24244;51.950;5.902;2022-12-18T00:34:02;15.98;;;6.82;;
38465;SDS011;24244;51.950;5.902;2022-12-18T00:36:29;12.45;;;7.53;;
38465;SDS011;24244;51.950;5.902;2022-12-18T00:38:58;15.00;;;7.30;;
38465;SDS011;24244;51.950;5.902;2022-12-18T00:41:25;14.60;;;7.28;;
38465;SDS011;24244;51.950;5.902;2022-12-18T00:44:12;17.30;;;7.28;;
38465;SDS011;24244;51.950;5.902;2022-12-18T00:46:42;17.40;;;7.57;;
38465;SDS011;24244;51.950;5.902;2022-12-18T00:49:10;16.50;;;7.75;;
38465;SDS011;24244;51.950;5.902;2022-12-18T00:51:37;15.90;;;6.88;;
38465;SDS011;24244;51.950;5.902;2022-12-18T00:54:03;14.30;;;6.70;;
38465;SDS011;24244;51.950;5.902;2022-12-18T00:56:31;13.57;;;6.35;;
38465;SDS011;24244;51.950;5.902;2022-12-18T00:58:57;16.92;;;7.80;;
38465;SDS011;24244;51.950;5.902;2022-12-18T01:01:24;16.98;;;7.38;;
38465;SDS011;24244;51.950;5.902;2022-12-18T01:03:52;16.77;;;7.60;;
38465;SDS011;24244;51.950;5.902;2022-12-18T01:06:19;17.77;;;7.57;;
38465;SDS011;24244;51.950;5.902;2022-12-18T01:08:46;18.00;;;8.82;;
38465;SDS011;24244;51.950;5.902;2022-12-18T01:11:13;18.90;;;8.68;;
38465;SDS011;24244;51.950;5.902;2022-12-18T01:13:42;17.10;;;7.85;;
38465;SDS011;24244;51.950;5.902;2022-12-18T01:16:11;16.02;;;7.40;;
38465;SDS011;24244;51.950;5.902;2022-12-18T01:18:38;14.63;;;7.63;;
38465;SDS011;24244;51.950;5.902;2022-12-18T01:21:07;16.08;;;7.35;;
38465;SDS011;24244;51.950;5.902;2022-12-18T01:23:35;13.70;;;6.80;;
38465;SDS011;24244;51.950;5.902;2022-12-18T01:26:05;15.30;;;8.00;;
38465;SDS011;24244;51.950;5.902;2022-12-18T01:28:33;14.98;;;6.15;;
38465;SDS011;24244;51.950;5.902;2022-12-18T01:31:09;13.85;;;7.35;;
38465;SDS011;24244;51.950;5.902;2022-12-18T01:33:39;14.48;;;6.65;;
38465;SDS011;24244;51.950;5.902;2022-12-18T01:36:11;12.15;;;6.95;;
38465;SDS011;24244;51.950;5.902;2022-12-18T01:38:41;11.82;;;6.07;;
38465;SDS011;24244;51.950;5.902;2022-12-18T01:41:08;14.20;;;6.68;;
38465;SDS011;24244;51.950;5.902;2022-12-18T01:43:42;16.20;;;7.38;;
38465;SDS011;24244;51.950;5.902;2022-12-18T01:46:13;16.00;;;7.30;;
38465;SDS011;24244;51.950;5.902;2022-12-18T01:48:41;15.63;;;6.80;;
38465;SDS011;24244;51.950;5.902;2022-12-18T01:51:10;15.05;;;7.72;;
38465;SDS011;24244;51.950;5.902;2022-12-18T01:53:39;11.80;;;6.07;;
38465;SDS011;24244;51.950;5.902;2022-12-18T01:56:08;14.48;;;7.55;;
38465;SDS011;24244;51.950;5.902;2022-12-18T01:58:41;15.25;;;7.00;;
38465;SDS011;24244;51.950;5.902;2022-12-18T02:01:14;15.65;;;6.95;;
38465;SDS011;24244;51.950;5.902;2022-12-18T02:03:42;13.95;;;6.72;;
38465;SDS011;24244;51.950;5.902;2022-12-18T02:06:13;13.23;;;6.97;;
38465;SDS011;24244;51.950;5.902;2022-12-18T02:08:46;14.35;;;7.32;;
38465;SDS011;24244;51.950;5.902;2022-12-18T02:11:22;11.98;;;6.53;;
38465;SDS011;24244;51.950;5.902;2022-12-18T02:13:58;14.82;;;6.90;;
38465;SDS011;24244;51.950;5.902;2022-12-18T02:16:35;13.98;;;6.97;;
38465;SDS011;24244;51.950;5.902;2022-12-18T02:19:08;15.30;;;7.13;;
38465;SDS011;24244;51.950;5.902;2022-12-18T02:21:49;13.85;;;6.68;;
38465;SDS011;24244;51.950;5.902;2022-12-18T02:24:29;12.20;;;6.68;;
38465;SDS011;24244;51.950;5.902;2022-12-18T02:27:03;14.82;;;6.68;;
38465;SDS011;24244;51.950;5.902;2022-12-18T02:29:33;13.32;;;6.68;;
38465;SDS011;24244;51.950;5.902;2022-12-18T02:32:06;14.68;;;6.80;;
38465;SDS011;24244;51.950;5.902;2022-12-18T02:34:38;11.85;;;7.40;;
38465;SDS011;24244;51.950;5.902;2022-12-18T02:37:07;13.65;;;6.15;;
38465;SDS011;24244;51.950;5.902;2022-12-18T02:39:38;13.88;;;6.97;;
38465;SDS011;24244;51.950;5.902;2022-12-18T02:42:11;12.57;;;6.38;;
38465;SDS011;24244;51.950;5.902;2022-12-18T02:44:43;10.57;;;6.65;;
38465;SDS011;24244;51.950;5.902;2022-12-18T02:49:41;12.63;;;6.13;;
38465;SDS011;24244;51.950;5.902;2022-12-18T02:52:19;11.57;;;6.47;;
38465;SDS011;24244;51.950;5.902;2022-12-18T02:55:00;13.73;;;6.63;;
38465;SDS011;24244;51.950;5.902;2022-12-18T02:57:42;11.30;;;6.15;;
38465;SDS011;24244;51.950;5.902;2022-12-18T03:00:16;10.10;;;5.53;;
38465;SDS011;24244;51.950;5.902;2022-12-18T03:02:48;11.05;;;5.82;;
38465;SDS011;24244;51.950;5.902;2022-12-18T03:05:22;13.60;;;6.63;;
38465;SDS011;24244;51.950;5.902;2022-12-18T03:07:53;13.43;;;6.22;;
38465;SDS011;24244;51.950;5.902;2022-12-18T03:10:25;11.93;;;5.80;;
38465;SDS011;24244;51.950;5.902;2022-12-18T03:12:56;12.55;;;6.53;;
38465;SDS011;24244;51.950;5.902;2022-12-18T03:15:28;12.43;;;6.57;;
38465;SDS011;24244;51.950;5.902;2022-12-18T03:17:59;13.32;;;6.15;;
38465;SDS011;24244;51.950;5.902;2022-12-18T03:20:29;14.23;;;6.20;;
38465;SDS011;24244;51.950;5.902;2022-12-18T03:22:59;13.50;;;6.30;;
38465;SDS011;24244;51.950;5.902;2022-12-18T03:28:00;10.15;;;5.38;;
38465;SDS011;24244;51.950;5.902;2022-12-18T03:30:29;11.07;;;5.45;;
38465;SDS011;24244;51.950;5.902;2022-12-18T03:33:01;13.30;;;6.07;;
38465;SDS011;24244;51.950;5.902;2022-12-18T03:38:01;9.50;;;4.75;;
38465;SDS011;24244;51.950;5.902;2022-12-18T03:40:29;13.35;;;6.45;;
38465;SDS011;24244;51.950;5.902;2022-12-18T03:43:06;12.82;;;5.45;;
38465;SDS011;24244;51.950;5.902;2022-12-18T03:45:38;11.85;;;6.32;;
38465;SDS011;24244;51.950;5.902;2022-12-18T03:48:10;13.10;;;5.32;;
38465;SDS011;24244;51.950;5.902;2022-12-18T03:50:45;10.07;;;5.40;;
38465;SDS011;24244;51.950;5.902;2022-12-18T03:53:20;9.68;;;5.18;;
38465;SDS011;24244;51.950;5.902;2022-12-18T03:55:52;8.93;;;4.90;;
38465;SDS011;24244;51.950;5.902;2022-12-18T03:58:22;9.88;;;4.85;;
38465;SDS011;24244;51.950;5.902;2022-12-18T04:00:52;10.48;;;5.65;;
38465;SDS011;24244;51.950;5.902;2022-12-18T04:03:22;10.00;;;5.80;;
38465;SDS011;24244;51.950;5.902;2022-12-18T04:06:03;11.40;;;5.47;;
38465;SDS011;24244;51.950;5.902;2022-12-18T04:08:31;10.55;;;6.57;;
38465;SDS011;24244;51.950;5.902;2022-12-18T04:11:01;10.45;;;5.10;;
38465;SDS011;24244;51.950;5.902;2022-12-18T04:13:31;11.85;;;5.53;;
38465;SDS011;24244;51.950;5.902;2022-12-18T04:16:01;9.15;;;5.20;;
38465;SDS011;24244;51.950;5.902;2022-12-18T04:18:28;9.25;;;5.05;;
38465;SDS011;24244;51.950;5.902;2022-12-18T04:20:55;9.02;;;5.22;;
38465;SDS011;24244;51.950;5.902;2022-12-18T04:23:22;9.73;;;4.57;;
38465;SDS011;24244;51.950;5.902;2022-12-18T04:25:49;10.35;;;5.07;;
38465;SDS011;24244;51.950;5.902;2022-12-18T04:28:15;10.30;;;5.78;;
38465;SDS011;24244;51.950;5.902;2022-12-18T04:30:43;8.20;;;5.20;;
38465;SDS011;24244;51.950;5.902;2022-12-18T04:33:10;10.68;;;5.30;;
38465;SDS011;24244;51.950;5.902;2022-12-18T04:35:40;10.00;;;4.72;;
38465;SDS011;24244;51.950;5.902;2022-12-18T04:38:08;9.30;;;4.93;;
38465;SDS011;24244;51.950;5.902;2022-12-18T04:40:36;9.38;;;4.97;;
38465;SDS011;24244;51.950;5.902;2022-12-18T04:43:04;8.10;;;4.93;;
38465;SDS011;24244;51.950;5.902;2022-12-18T04:45:31;9.07;;;5.72;;
38465;SDS011;24244;51.950;5.902;2022-12-18T04:48:00;12.35;;;5.53;;
38465;SDS011;24244;51.950;5.902;2022-12-18T04:50:28;8.70;;;3.83;;
38465;SDS011;24244;51.950;5.902;2022-12-18T04:52:55;8.50;;;4.55;;
38465;SDS011;24244;51.950;5.902;2022-12-18T04:55:25;8.85;;;5.00;;
38465;SDS011;24244;51.950;5.902;2022-12-18T04:57:52;11.38;;;6.55;;
38465;SDS011;24244;51.950;5.902;2022-12-18T05:00:19;9.05;;;5.32;;
38465;SDS011;24244;51.950;5.902;2022-12-18T05:02:46;9.32;;;4.68;;
38465;SDS011;24244;51.950;5.902;2022-12-18T05:05:15;7.28;;;3.83;;
38465;SDS011;24244;51.950;5.902;2022-12-18T05:07:42;7.45;;;4.35;;
38465;SDS011;24244;51.950;5.902;2022-12-18T05:10:09;8.02;;;4.47;;
38465;SDS011;24244;51.950;5.902;2022-12-18T05:12:36;8.20;;;4.60;;
38465;SDS011;24244;51.950;5.902;2022-12-18T05:15:26;7.85;;;4.43;;
38465;SDS011;24244;51.950;5.902;2022-12-18T05:17:55;6.78;;;4.47;;
38465;SDS011;24244;51.950;5.902;2022-12-18T05:20:24;10.38;;;5.22;;
38465;SDS011;24244;51.950;5.902;2022-12-18T05:22:51;7.53;;;4.32;;
38465;SDS011;24244;51.950;5.902;2022-12-18T05:25:18;8.52;;;4.05;;
38465;SDS011;24244;51.950;5.902;2022-12-18T05:27:46;7.93;;;4.43;;
38465;SDS011;24244;51.950;5.902;2022-12-18T05:30:13;8.88;;;4.78;;
38465;SDS011;24244;51.950;5.902;2022-12-18T05:32:41;11.02;;;4.90;;
38465;SDS011;24244;51.950;5.902;2022-12-18T05:35:09;9.57;;;4.63;;
38465;SDS011;24244;51.950;5.902;2022-12-18T05:37:38;8.27;;;4.22;;
38465;SDS011;24244;51.950;5.902;2022-12-18T05:40:12;7.45;;;4.53;;
38465;SDS011;24244;51.950;5.902;2022-12-18T05:42:39;7.65;;;4.53;;
38465;SDS011;24244;51.950;5.902;2022-12-18T05:45:06;7.72;;;4.57;;
38465;SDS011;24244;51.950;5.902;2022-12-18T05:47:34;7.70;;;4.93;;
38465;SDS011;24244;51.950;5.902;2022-12-18T05:50:00;6.93;;;4.10;;
38465;SDS011;24244;51.950;5.902;2022-12-18T05:52:27;8.00;;;4.13;;
38465;SDS011;24244;51.950;5.902;2022-12-18T05:54:57;7.38;;;4.38;;
38465;SDS011;24244;51.950;5.902;2022-12-18T05:57:25;7.10;;;4.15;;
38465;SDS011;24244;51.950;5.902;2022-12-18T05:59:52;9.23;;;4.82;;
38465;SDS011;24244;51.950;5.902;2022-12-18T06:02:19;6.20;;;4.85;;
38465;SDS011;24244;51.950;5.902;2022-12-18T06:04:47;7.80;;;5.05;;
38465;SDS011;24244;51.950;5.902;2022-12-18T06:07:14;8.38;;;4.78;;
38465;SDS011;24244;51.950;5.902;2022-12-18T06:09:41;8.70;;;5.13;;
38465;SDS011;24244;51.950;5.902;2022-12-18T06:12:09;7.45;;;4.57;;
38465;SDS011;24244;51.950;5.902;2022-12-18T06:14:37;7.68;;;4.38;;
38465;SDS011;24244;51.950;5.902;2022-12-18T06:17:03;7.63;;;4.72;;
38465;SDS011;24244;51.950;5.902;2022-12-18T06:19:30;12.45;;;5.45;;
38465;SDS011;24244;51.950;5.902;2022-12-18T06:21:59;9.95;;;5.00;;
38465;SDS011;24244;51.950;5.902;2022-12-18T06:24:27;8.05;;;4.90;;
38465;SDS011;24244;51.950;5.902;2022-12-18T06:26:55;8.38;;;4.72;;
38465;SDS011;24244;51.950;5.902;2022-12-18T06:29:29;6.57;;;3.92;;
38465;SDS011;24244;51.950;5.902;2022-12-18T06:31:57;7.45;;;4.25;;
38465;SDS011;24244;51.950;5.902;2022-12-18T06:34:23;6.25;;;3.97;;
38465;SDS011;24244;51.950;5.902;2022-12-18T06:36:52;7.57;;;4.22;;
38465;SDS011;24244;51.950;5.902;2022-12-18T06:39:31;7.35;;;4.35;;
38465;SDS011;24244;51.950;5.902;2022-12-18T06:42:06;8.65;;;4.30;;
38465;SDS011;24244;51.950;5.902;2022-12-18T06:44:38;5.68;;;3.83;;
38465;SDS011;24244;51.950;5.902;2022-12-18T06:47:05;7.22;;;3.88;;
38465;SDS011;24244;51.950;5.902;2022-12-18T06:49:33;6.53;;;4.20;;
38465;SDS011;24244;51.950;5.902;2022-12-18T06:52:00;6.45;;;4.03;;
38465;SDS011;24244;51.950;5.902;2022-12-18T06:54:27;6.47;;;4.13;;
38465;SDS011;24244;51.950;5.902;2022-12-18T06:56:59;7.95;;;4.43;;
38465;SDS011;24244;51.950;5.902;2022-12-18T06:59:27;7.47;;;4.97;;
38465;SDS011;24244;51.950;5.902;2022-12-18T07:01:56;8.10;;;4.43;;
38465;SDS011;24244;51.950;5.902;2022-12-18T07:04:27;7.45;;;4.60;;
38465;SDS011;24244;51.950;5.902;2022-12-18T07:06:54;7.07;;;4.30;;
38465;SDS011;24244;51.950;5.902;2022-12-18T07:09:21;4.70;;;2.85;;
38465;SDS011;24244;51.950;5.902;2022-12-18T07:11:47;8.15;;;4.78;;
38465;SDS011;24244;51.950;5.902;2022-12-18T07:14:14;10.05;;;4.80;;
38465;SDS011;24244;51.950;5.902;2022-12-18T07:16:41;8.95;;;5.03;;
38465;SDS011;24244;51.950;5.902;2022-12-18T07:19:10;6.05;;;3.63;;
38465;SDS011;24244;51.950;5.902;2022-12-18T07:21:39;7.38;;;5.07;;
38465;SDS011;24244;51.950;5.902;2022-12-18T07:24:06;7.45;;;4.07;;
38465;SDS011;24244;51.950;5.902;2022-12-18T07:26:35;7.32;;;3.78;;
38465;SDS011;24244;51.950;5.902;2022-12-18T07:29:02;5.30;;;3.58;;
38465;SDS011;24244;51.950;5.902;2022-12-18T07:31:28;5.90;;;3.72;;
38465;SDS011;24244;51.950;5.902;2022-12-18T07:33:58;6.38;;;3.45;;
38465;SDS011;24244;51.950;5.902;2022-12-18T07:36:26;8.55;;;4.03;;
38465;SDS011;24244;51.950;5.902;2022-12-18T07:38:54;7.65;;;3.95;;
38465;SDS011;24244;51.950;5.902;2022-12-18T07:41:23;7.05;;;3.92;;
38465;SDS011;24244;51.950;5.902;2022-12-18T07:43:51;6.57;;;3.75;;
38465;SDS011;24244;51.950;5.902;2022-12-18T07:46:18;8.35;;;4.57;;
38465;SDS011;24244;51.950;5.902;2022-12-18T07:48:47;5.40;;;3.42;;
38465;SDS011;24244;51.950;5.902;2022-12-18T07:51:17;5.55;;;3.53;;
38465;SDS011;24244;51.950;5.902;2022-12-18T07:53:47;6.50;;;3.63;;
38465;SDS011;24244;51.950;5.902;2022-12-18T07:56:18;7.22;;;3.80;;
38465;SDS011;24244;51.950;5.902;2022-12-18T07:58:58;5.18;;;3.28;;
38465;SDS011;24244;51.950;5.902;2022-12-18T08:01:26;5.60;;;3.30;;
38465;SDS011;24244;51.950;5.902;2022-12-18T08:03:54;8.23;;;4.47;;
38465;SDS011;24244;51.950;5.902;2022-12-18T08:06:21;6.93;;;4.10;;
38465;SDS011;24244;51.950;5.902;2022-12-18T08:08:54;5.97;;;3.97;;
38465;SDS011;24244;51.950;5.902;2022-12-18T08:11:22;8.43;;;4.00;;
38465;SDS011;24244;51.950;5.902;2022-12-18T08:13:50;5.00;;;3.47;;
38465;SDS011;24244;51.950;5.902;2022-12-18T08:16:17;6.20;;;4.05;;
38465;SDS011;24244;51.950;5.902;2022-12-18T08:18:46;5.68;;;3.88;;
38465;SDS011;24244;51.950;5.902;2022-12-18T08:21:13;6.47;;;4.00;;
38465;SDS011;24244;51.950;5.902;2022-12-18T08:26:46;5.43;;;3.35;;
38465;SDS011;24244;51.950;5.902;2022-12-18T08:29:33;7.57;;;3.65;;
38465;SDS011;24244;51.950;5.902;2022-12-18T08:32:00;5.47;;;4.00;;
38465;SDS011;24244;51.950;5.902;2022-12-18T08:34:27;5.93;;;3.50;;
38465;SDS011;24244;51.950;5.902;2022-12-18T08:36:53;6.68;;;3.95;;
38465;SDS011;24244;51.950;5.902;2022-12-18T08:39:20;5.75;;;3.10;;
38465;SDS011;24244;51.950;5.902;2022-12-18T08:41:49;5.88;;;4.10;;
38465;SDS011;24244;51.950;5.902;2022-12-18T08:44:41;7.85;;;4.55;;
38465;SDS011;24244;51.950;5.902;2022-12-18T08:49:36;6.90;;;3.45;;
38465;SDS011;24244;51.950;5.902;2022-12-18T08:52:03;5.18;;;3.38;;
38465;SDS011;24244;51.950;5.902;2022-12-18T08:54:30;7.45;;;3.63;;
38465;SDS011;24244;51.950;5.902;2022-12-18T08:56:58;6.22;;;3.55;;
38465;SDS011;24244;51.950;5.902;2022-12-18T08:59:28;5.30;;;3.22;;
38465;SDS011;24244;51.950;5.902;2022-12-18T09:01:55;5.90;;;2.60;;
38465;SDS011;24244;51.950;5.902;2022-12-18T09:04:22;9.13;;;3.45;;
38465;SDS011;24244;51.950;5.902;2022-12-18T09:06:50;4.63;;;3.17;;
38465;SDS011;24244;51.950;5.902;2022-12-18T09:09:17;7.13;;;3.03;;
38465;SDS011;24244;51.950;5.902;2022-12-18T09:11:43;5.38;;;2.75;;
38465;SDS011;24244;51.950;5.902;2022-12-18T09:14:12;6.57;;;3.13;;
38465;SDS011;24244;51.950;5.902;2022-12-18T09:16:42;3.95;;;2.88;;
38465;SDS011;24244;51.950;5.902;2022-12-18T09:19:11;7.75;;;2.80;;
38465;SDS011;24244;51.950;5.902;2022-12-18T09:21:41;6.18;;;3.13;;
38465;SDS011;24244;51.950;5.902;2022-12-18T09:24:14;5.93;;;3.53;;
38465;SDS011;24244;51.950;5.902;2022-12-18T09:26:41;6.55;;;2.97;;
38465;SDS011;24244;51.950;5.902;2022-12-18T09:29:14;6.05;;;3.47;;
38465;SDS011;24244;51.950;5.902;2022-12-18T09:31:44;6.70;;;2.88;;
38465;SDS011;24244;51.950;5.902;2022-12-18T09:34:11;6.80;;;3.35;;
38465;SDS011;24244;51.950;5.902;2022-12-18T09:36:37;6.50;;;3.25;;
38465;SDS011;24244;51.950;5.902;2022-12-18T09:39:05;4.90;;;2.63;;
38465;SDS011;24244;51.950;5.902;2022-12-18T09:41:41;5.93;;;3.45;;
38465;SDS011;24244;51.950;5.902;2022-12-18T09:44:15;7.30;;;4.00;;
38465;SDS011;24244;51.950;5.902;2022-12-18T09:46:52;6.55;;;3.58;;
38465;SDS011;24244;51.950;5.902;2022-12-18T09:49:25;6.75;;;3.35;;
38465;SDS011;24244;51.950;5.902;2022-12-18T09:51:58;7.20;;;3.38;;
38465;SDS011;24244;51.950;5.902;2022-12-18T09:54:30;6.25;;;3.78;;
38465;SDS011;24244;51.950;5.902;2022-12-18T09:56:59;7.75;;;3.63;;
38465;SDS011;24244;51.950;5.902;2022-12-18T09:59:29;6.18;;;3.60;;
38465;SDS011;24244;51.950;5.902;2022-12-18T10:02:02;7.85;;;3.80;;
38465;SDS011;24244;51.950;5.902;2022-12-18T10:04:40;5.22;;;2.60;;
38465;SDS011;24244;51.950;5.902;2022-12-18T10:07:07;6.50;;;3.15;;
38465;SDS011;24244;51.950;5.902;2022-12-18T10:09:42;8.75;;;3.55;;
38465;SDS011;24244;51.950;5.902;2022-12-18T10:12:21;6.20;;;3.17;;
38465;SDS011;24244;51.950;5.902;2022-12-18T10:14:57;7.38;;;3.35;;
38465;SDS011;24244;51.950;5.902;2022-12-18T10:17:32;5.03;;;2.45;;
38465;SDS011;24244;51.950;5.902;2022-12-18T10:20:10;7.13;;;3.22;;
38465;SDS011;24244;51.950;5.902;2022-12-18T10:22:48;6.40;;;2.72;;
38465;SDS011;24244;51.950;5.902;2022-12-18T10:25:21;4.35;;;2.63;;
38465;SDS011;24244;51.950;5.902;2022-12-18T10:27:51;6.28;;;3.90;;
38465;SDS011;24244;51.950;5.902;2022-12-18T10:30:23;5.15;;;2.58;;
38465;SDS011;24244;51.950;5.902;2022-12-18T10:32:51;5.60;;;2.38;;
38465;SDS011;24244;51.950;5.902;2022-12-18T10:35:19;7.43;;;3.55;;
38465;SDS011;24244;51.950;5.902;2022-12-18T10:38:04;8.13;;;3.90;;
38465;SDS011;24244;51.950;5.902;2022-12-18T10:40:47;6.40;;;2.80;;
38465;SDS011;24244;51.950;5.902;2022-12-18T10:43:19;7.65;;;3.10;;
38465;SDS011;24244;51.950;5.902;2022-12-18T10:45:59;7.63;;;4.63;;
38465;SDS011;24244;51.950;5.902;2022-12-18T10:48:28;5.15;;;3.50;;
38465;SDS011;24244;51.950;5.902;2022-12-18T10:50:56;7.68;;;4.18;;
38465;SDS011;24244;51.950;5.902;2022-12-18T10:53:39;7.90;;;3.60;;
38465;SDS011;24244;51.950;5.902;2022-12-18T10:56:08;11.00;;;5.22;;
38465;SDS011;24244;51.950;5.902;2022-12-18T10:58:36;8.07;;;3.75;;
38465;SDS011;24244;51.950;5.902;2022-12-18T11:01:08;6.60;;;3.70;;
38465;SDS011;24244;51.950;5.902;2022-12-18T11:03:37;6.53;;;3.55;;
38465;SDS011;24244;51.950;5.902;2022-12-18T11:06:08;5.25;;;2.80;;
38465;SDS011;24244;51.950;5.902;2022-12-18T11:08:38;7.10;;;3.95;;
38465;SDS011;24244;51.950;5.902;2022-12-18T11:11:14;8.18;;;4.50;;
38465;SDS011;24244;51.950;5.902;2022-12-18T11:13:48;6.00;;;3.53;;
38465;SDS011;24244;51.950;5.902;2022-12-18T11:19:34;11.65;;;6.10;;
38465;SDS011;24244;51.950;5.902;2022-12-18T11:22:03;7.20;;;4.03;;
38465;SDS011;24244;51.950;5.902;2022-12-18T11:24:51;6.72;;;3.90;;
38465;SDS011;24244;51.950;5.902;2022-12-18T11:27:39;6.45;;;2.97;;
38465;SDS011;24244;51.950;5.902;2022-12-18T11:30:07;7.82;;;4.35;;
38465;SDS011;24244;51.950;5.902;2022-12-18T11:32:36;7.40;;;4.15;;
38465;SDS011;24244;51.950;5.902;2022-12-18T11:35:10;7.13;;;3.90;;
38465;SDS011;24244;51.950;5.902;2022-12-18T11:37:42;7.35;;;3.58;;
38465;SDS011;24244;51.950;5.902;2022-12-18T11:40:15;7.00;;;3.85;;
38465;SDS011;24244;51.950;5.902;2022-12-18T11:42:47;8.88;;;3.95;;
38465;SDS011;24244;51.950;5.902;2022-12-18T11:45:27;7.82;;;3.60;;
38465;SDS011;24244;51.950;5.902;2022-12-18T11:48:01;7.78;;;4.20;;
38465;SDS011;24244;51.950;5.902;2022-12-18T11:53:09;6.40;;;3.55;;
38465;SDS011;24244;51.950;5.902;2022-12-18T11:55:39;8.48;;;4.00;;
38465;SDS011;24244;51.950;5.902;2022-12-18T12:04:22;6.95;;;3.40;;
38465;SDS011;24244;51.950;5.902;2022-12-18T12:07:06;7.60;;;3.30;;
38465;SDS011;24244;51.950;5.902;2022-12-18T12:09:47;8.93;;;4.05;;
38465;SDS011;24244;51.950;5.902;2022-12-18T12:12:25;10.55;;;4.13;;
38465;SDS011;24244;51.950;5.902;2022-12-18T12:15:17;7.25;;;3.35;;
38465;SDS011;24244;51.950;5.902;2022-12-18T12:17:53;8.18;;;3.47;;
38465;SDS011;24244;51.950;5.902;2022-12-18T12:20:27;7.60;;;3.55;;
38465;SDS011;24244;51.950;5.902;2022-12-18T12:23:06;8.25;;;3.50;;
38465;SDS011;24244;51.950;5.902;2022-12-18T12:25:44;10.32;;;4.38;;
38465;SDS011;24244;51.950;5.902;2022-12-18T12:28:19;7.72;;;3.50;;
38465;SDS011;24244;51.950;5.902;2022-12-18T12:33:33;6.68;;;3.50;;
38465;SDS011;24244;51.950;5.902;2022-12-18T12:36:12;7.75;;;3.75;;
38465;SDS011;24244;51.950;5.902;2022-12-18T12:38:47;5.72;;;3.28;;
38465;SDS011;24244;51.950;5.902;2022-12-18T12:41:20;7.25;;;3.92;;
38465;SDS011;24244;51.950;5.902;2022-12-18T12:44:17;6.68;;;3.58;;
38465;SDS011;24244;51.950;5.902;2022-12-18T12:46:48;6.90;;;3.50;;
38465;SDS011;24244;51.950;5.902;2022-12-18T12:49:17;6.00;;;3.42;;
38465;SDS011;24244;51.950;5.902;2022-12-18T12:51:53;7.15;;;3.85;;
38465;SDS011;24244;51.950;5.902;2022-12-18T12:54:25;7.07;;;3.72;;
38465;SDS011;24244;51.950;5.902;2022-12-18T12:56:57;5.82;;;3.28;;
38465;SDS011;24244;51.950;5.902;2022-12-18T13:02:54;6.22;;;3.42;;
38465;SDS011;24244;51.950;5.902;2022-12-18T13:05:30;6.38;;;2.83;;
38465;SDS011;24244;51.950;5.902;2022-12-18T13:08:03;6.22;;;3.45;;
38465;SDS011;24244;51.950;5.902;2022-12-18T13:10:33;6.43;;;3.33;;
38465;SDS011;24244;51.950;5.902;2022-12-18T13:13:03;8.02;;;4.10;;
38465;SDS011;24244;51.950;5.902;2022-12-18T13:15:36;5.57;;;3.05;;
38465;SDS011;24244;51.950;5.902;2022-12-18T13:18:16;6.07;;;3.30;;
38465;SDS011;24244;51.950;5.902;2022-12-18T13:20:45;7.03;;;3.95;;
38465;SDS011;24244;51.950;5.902;2022-12-18T13:23:34;8.05;;;4.57;;
38465;SDS011;24244;51.950;5.902;2022-12-18T13:29:00;6.25;;;3.50;;
38465;SDS011;24244;51.950;5.902;2022-12-18T13:34:34;6.68;;;3.88;;
38465;SDS011;24244;51.950;5.902;2022-12-18T13:43:24;7.47;;;4.65;;
38465;SDS011;24244;51.950;5.902;2022-12-18T13:46:02;7.38;;;4.43;;
38465;SDS011;24244;51.950;5.902;2022-12-18T13:48:55;6.30;;;3.47;;
38465;SDS011;24244;51.950;5.902;2022-12-18T13:51:24;6.35;;;4.25;;
38465;SDS011;24244;51.950;5.902;2022-12-18T13:53:56;10.27;;;3.97;;
38465;SDS011;24244;51.950;5.902;2022-12-18T13:56:27;6.63;;;3.58;;
38465;SDS011;24244;51.950;5.902;2022-12-18T13:59:14;7.28;;;4.25;;
38465;SDS011;24244;51.950;5.902;2022-12-18T14:01:44;10.10;;;4.43;;
38465;SDS011;24244;51.950;5.902;2022-12-18T14:04:18;6.32;;;3.78;;
38465;SDS011;24244;51.950;5.902;2022-12-18T14:06:49;6.10;;;3.13;;
38465;SDS011;24244;51.950;5.902;2022-12-18T14:09:25;9.00;;;4.35;;
38465;SDS011;24244;51.950;5.902;2022-12-18T14:11:55;8.05;;;3.78;;
38465;SDS011;24244;51.950;5.902;2022-12-18T14:14:45;6.97;;;3.85;;
38465;SDS011;24244;51.950;5.902;2022-12-18T14:17:18;6.43;;;3.65;;
38465;SDS011;24244;51.950;5.902;2022-12-18T14:19:47;6.93;;;4.03;;
38465;SDS011;24244;51.950;5.902;2022-12-18T14:22:18;6.95;;;3.90;;
38465;SDS011;24244;51.950;5.902;2022-12-18T14:25:04;6.85;;;3.40;;
38465;SDS011;24244;51.950;5.902;2022-12-18T14:27:41;6.93;;;3.47;;
38465;SDS011;24244;51.950;5.902;2022-12-18T14:30:28;7.38;;;4.10;;
38465;SDS011;24244;51.950;5.902;2022-12-18T14:33:00;9.93;;;4.35;;
38465;SDS011;24244;51.950;5.902;2022-12-18T14:35:31;7.70;;;3.97;;
38465;SDS011;24244;51.950;5.902;2022-12-18T14:38:09;7.35;;;3.92;;
38465;SDS011;24244;51.950;5.902;2022-12-18T14:40:51;7.38;;;4.18;;
38465;SDS011;24244;51.950;5.902;2022-12-18T14:43:19;7.03;;;4.38;;
38465;SDS011;24244;51.950;5.902;2022-12-18T14:45:47;8.27;;;4.07;;
38465;SDS011;24244;51.950;5.902;2022-12-18T14:48:16;8.70;;;4.10;;
38465;SDS011;24244;51.950;5.902;2022-12-18T14:50:56;11.93;;;4.63;;
38465;SDS011;24244;51.950;5.902;2022-12-18T14:53:32;8.55;;;4.35;;
38465;SDS011;24244;51.950;5.902;2022-12-18T14:56:01;14.13;;;6.15;;
38465;SDS011;24244;51.950;5.902;2022-12-18T14:58:28;9.88;;;5.15;;
38465;SDS011;24244;51.950;5.902;2022-12-18T15:00:56;7.97;;;3.90;;
38465;SDS011;24244;51.950;5.902;2022-12-18T15:03:23;10.02;;;5.25;;
38465;SDS011;24244;51.950;5.902;2022-12-18T15:05:52;8.43;;;5.03;;
38465;SDS011;24244;51.950;5.902;2022-12-18T15:08:29;8.55;;;4.68;;
38465;SDS011;24244;51.950;5.902;2022-12-18T15:11:00;8.65;;;4.00;;
38465;SDS011;24244;51.950;5.902;2022-12-18T15:13:28;8.48;;;4.75;;
38465;SDS011;24244;51.950;5.902;2022-12-18T15:15:56;7.18;;;4.28;;
38465;SDS011;24244;51.950;5.902;2022-12-18T15:18:29;7.30;;;4.13;;
38465;SDS011;24244;51.950;5.902;2022-12-18T15:20:58;9.45;;;4.55;;
38465;SDS011;24244;51.950;5.902;2022-12-18T15:23:34;6.50;;;4.05;;
38465;SDS011;24244;51.950;5.902;2022-12-18T15:26:04;9.05;;;5.22;;
38465;SDS011;24244;51.950;5.902;2022-12-18T15:28:36;9.60;;;4.45;;
38465;SDS011;24244;51.950;5.902;2022-12-18T15:31:19;6.80;;;4.22;;
38465;SDS011;24244;51.950;5.902;2022-12-18T15:34:00;8.00;;;4.55;;
38465;SDS011;24244;51.950;5.902;2022-12-18T15:36:43;8.00;;;4.57;;
38465;SDS011;24244;51.950;5.902;2022-12-18T15:39:12;5.90;;;3.67;;
38465;SDS011;24244;51.950;5.902;2022-12-18T15:41:42;9.85;;;4.40;;
38465;SDS011;24244;51.950;5.902;2022-12-18T15:44:29;9.40;;;4.55;;
38465;SDS011;24244;51.950;5.902;2022-12-18T15:46:58;8.80;;;4.50;;
38465;SDS011;24244;51.950;5.902;2022-12-18T15:49:26;9.43;;;4.90;;
38465;SDS011;24244;51.950;5.902;2022-12-18T15:51:53;9.32;;;5.40;;